• Join FlightAware (Why Join?)
  • Login
  • US Flag 
05:07AM EDT


 

Airport Tracker/Info


-or-


 

Live Flight TrackerFlight Track Log ✈ N777NC ✈ 28-Jun-2013 ✈ KATL - KJAN

Flight Track Log - Related Links

Times and Time Zones

All times are in EDT time to prevent confusion due to time zone crossing. See the N777NC flight status page for this flight to view local times or setup timezone preferences in your user account.

Time Position Orientation Groundspeed Altitude Reporting Facility
EDT Latitude Longitude Course Direction KTS MPH feet Rate Location/Type
10:03PM 33.6536 -84.4806 259° West 442 509 2,500  Level Atlanta Center
10:04PM 33.6719 -84.5706 284° West 370 426 5,600 2,460 Climbing Atlanta Center
10:05PM 33.6736 -84.6553 271° West 265 305 7,500 2,100 Climbing Atlanta Center
10:06PM 33.5453 -84.9163 260° West  Level FlightAware Approximate
10:06PM 33.6733 -84.7428 270° West 278 320 9,800  Level Atlanta Center
10:07PM 33.5274 -85.0421 260° West  Level FlightAware Approximate
10:07PM 33.6664 -84.8475 265° West 301 346 11,100  Level Atlanta Center
10:08PM 33.5082 -85.1677 259° West  Level FlightAware Approximate
10:08PM 33.6511 -84.9397 259° West 316 364 13,100  Level Atlanta Center
10:09PM 33.6356 -85.0469 260° West 321 369 15,000 1,800 Climbing Atlanta Center
10:10PM 33.6389 -85.1592 272° West 337 388 16,700 1,620 Climbing Atlanta Center
10:11PM 33.6461 -85.2742 274° West 348 400 18,300 1,440 Climbing Atlanta Center
10:12PM 33.6533 -85.3964 274° West 356 410 19,600 1,320 Climbing Atlanta Center
10:13PM 33.6561 -85.5186 272° West 363 418 21,000 1,320 Climbing Atlanta Center
10:14PM 33.6606 -85.6536 272° West 369 425 22,300 1,260 Climbing Atlanta Center
10:15PM 33.6631 -85.7833 271° West 382 440 23,600 1,080 Climbing Atlanta Center
10:16PM 33.6614 -85.8958 269° West 382 440 24,500 1,200 Climbing Atlanta Center
10:17PM 33.6611 -86.0331 270° West 395 455 26,000 1,320 Climbing Atlanta Center
10:18PM 33.6653 -86.1628 272° West 395 455 27,200 900 Climbing Atlanta Center
10:19PM 33.6672 -86.2953 271° West 395 455 27,900 360 Climbing Atlanta Center
10:20PM 33.6750 -86.4278 274° West 405 466 28,000  Climbing Atlanta Center
10:21PM 33.6808 -86.5628 273° West 405 466 28,000  Level Atlanta Center
10:22PM 33.6758 -86.6922 267° West 405 466 28,000  Level Atlanta Center
10:23PM 33.6606 -86.8192 262° West 400 460 28,000  Level Atlanta Center
10:24PM 33.6472 -86.9458 263° West 400 460 28,000  Level Atlanta Center
10:25PM 33.6047 -87.0667 247° West 394 453 28,000  Level Atlanta Center
10:26PM 33.5456 -87.1817 238° Southwest 394 453 28,000  Level Atlanta Center
10:28PM 33.4306 -87.4225 240° Southwest 412 474 28,000  Level Memphis Center
10:29PM 33.3811 -87.5436 244° Southwest 417 480 28,000  Level Memphis Center
10:30PM 33.3381 -87.6742 248° West 417 480 28,000  Level Memphis Center
10:31PM 33.3011 -87.7997 251° West 412 474 28,000 -120 Level Memphis Center
10:32PM 33.2619 -87.9300 250° West 412 474 27,800 -600 Descending Memphis Center
10:33PM 33.2308 -88.0550 253° West 412 474 26,800 -1,020 Descending Memphis Center
10:34PM 33.2036 -88.1700 254° West 391 450 25,800 -900 Descending Memphis Center
10:35PM 33.1847 -88.2747 258° West 374 430 25,000 -780 Descending Memphis Center
10:36PM 33.1592 -88.3819 254° West 359 413 24,300 -540 Descending Memphis Center
10:37PM 33.1297 -88.4967 253° West 354 407 24,000 -180 Descending Memphis Center
10:38PM 33.1022 -88.6089 254° West 354 407 24,000 -540 Level Memphis Center
10:39PM 33.0722 -88.7161 252° West 354 407 23,000 -1,200 Descending Memphis Center
10:40PM 33.0444 -88.8306 254° West 342 394 21,600 -1,260 Descending Memphis Center
10:41PM 33.0206 -88.9303 254° West 331 381 20,500 -1,140 Descending Memphis Center
10:42PM 32.9906 -89.0297 250° West 326 375 19,400 -1,140 Descending Memphis Center
10:43PM 32.9600 -89.1217 248° West 316 364 18,300 -1,200 Descending Memphis Center
10:44PM 32.9317 -89.2064 248° West 297 342 17,100 -1,200 Descending Memphis Center
10:45PM 32.8947 -89.2883 242° Southwest 289 333 16,000 -1,080 Descending Memphis Center
10:46PM 32.8539 -89.3781 242° Southwest 294 338 15,000 -540 Descending Memphis Center
10:47PM 32.8169 -89.4650 243° Southwest 300 345 15,000  Level Memphis Center
10:48PM 32.8008 -89.5589 258° West 300 345 15,000  Level Memphis Center
10:49PM 32.7867 -89.6506 260° West 288 331 15,000  Level Memphis Center
10:50PM 32.7728 -89.7444 260° West 288 331 15,000  Level Memphis Center
10:51PM 32.7586 -89.8386 260° West 293 337 15,000  Level Memphis Center
10:52PM 32.7506 -89.9350 264° West 293 337 15,000  Level Memphis Center
10:53PM 32.7467 -90.0289 267° West 293 337 15,000  Level Memphis Center
10:54PM 32.7428 -90.1228 267° West 293 337 15,000  Level Memphis Center
10:55PM 32.7386 -90.2139 267° West 293 337 15,000  Level Memphis Center
10:56PM 32.7303 -90.3078 264° West 293 337 15,000  Level Memphis Center
10:57PM 32.6553 -90.3375 198° South 251 289 15,000  Level Memphis Center
10:58PM 32.6133 -90.2464 119° Southeast 173 199 15,000  Level Memphis Center
10:59PM 32.6092 -90.1353 93° East 231 266 15,000  Level Memphis Center
11:00PM 32.6067 -90.0219 91° East 292 336 15,000  Level Memphis Center
11:01PM 32.6272 -89.9158 77° East 309 356 15,000 -420 Level Memphis Center
11:02PM 32.7044 -89.9228 356° North 229 264 14,200 -1,080 Descending Memphis Center
11:03PM 32.6986 -90.0142 266° West 142 163 12,900 -1,800 Descending Memphis Center
11:04PM 32.6153 -90.0467 198° South 154 177 10,600 -2,520 Descending Memphis Center
11:05PM 32.5358 -90.0667 192° South 229 264 7,900 -2,700 Descending Memphis Center